Terminal Aerodrome Forecast
Issued by NWS Charleston, WV

Current Version | Previous Version | Graphics & Text | Print | Product List | Glossary On
Versions: 1 2 3 4 5 6 7 8 9 10 11 12 13 14 15 16 17 18 19 20 21 22 23 24 25 26 27 28 29
422
FTUS41 KRLX 221923 AAC
TAFCRW
TAF AMD
KCRW 221923Z 2219/2318 32003KT 2SM -DZ BR OVC006
     FM222100 34003KT P6SM OVC010
     FM230300 00000KT 4SM BR OVC008
     FM231300 15006KT 6SM BR BKN035
     FM231400 17007KT P6SM BKN035
     FM231700 20009G15KT P6SM BKN035=

USA.gov is the U.S. government's official web portal to all federal, state and local government web resources and services.